Time;durP1;ratioP1;P1;durP2;ratioP2;P2;SDS_P1;SDS_P2;PMS_P1;PMS_P2;Temp;Humidity;BMP_temperature;BMP_pressure;BME280_temperature;BME280_humidity;BME280_pressure;Samples;Min_cycle;Max_cycle;Signal;HPM_P1;HPM_P2
2022/01/05 00:00:42;;;;;;;9.70;6.00;;;;;;;5.99;85.35;98064.25;130252;1268;107872;-73
2022/01/05 00:03:48;;;;;;;12.30;7.40;;;;;;;5.96;85.24;98060.20;130186;1268;107287;-72
2022/01/05 00:06:53;;;;;;;11.70;7.00;;;;;;;5.94;85.16;98057.61;130240;1268;108844;-73
2022/01/05 00:09:59;;;;;;;12.00;7.30;;;;;;;5.87;84.97;98056.40;130256;1269;108320;-75
2022/01/05 00:13:05;;;;;;;12.00;6.80;;;;;;;5.79;84.91;98060.40;130313;1268;108805;-75
2022/01/05 00:16:11;;;;;;;11.30;7.50;;;;;;;5.74;84.90;98063.77;130180;1271;108444;-76
2022/01/05 00:19:17;;;;;;;11.70;6.90;;;;;;;5.71;84.89;98076.07;130234;1268;108814;-75
2022/01/05 00:22:22;;;;;;;12.40;6.70;;;;;;;5.68;85.06;98083.50;130338;1268;108895;-75
2022/01/05 00:25:28;;;;;;;11.30;6.90;;;;;;;5.70;85.27;98092.23;130107;1271;107696;-77
2022/01/05 00:28:33;;;;;;;11.80;7.30;;;;;;;5.77;85.17;98098.06;130182;1271;108834;-74
2022/01/05 00:31:38;;;;;;;14.90;7.90;;;;;;;5.82;85.01;98104.92;130276;1268;108725;-73
2022/01/05 00:34:44;;;;;;;14.70;7.80;;;;;;;5.88;84.99;98110.31;130254;1268;107000;-74
2022/01/05 00:37:49;;;;;;;14.50;8.00;;;;;;;5.95;85.04;98113.27;130292;1271;108873;-74
2022/01/05 00:40:55;;;;;;;12.00;6.70;;;;;;;5.97;84.85;98106.90;130168;1268;108669;-74
2022/01/05 00:44:00;;;;;;;13.60;7.10;;;;;;;5.98;84.81;98106.66;130135;1271;108860;-75
2022/01/05 00:47:06;;;;;;;11.70;6.80;;;;;;;6.02;84.96;98102.38;130318;1268;108777;-75
2022/01/05 00:50:12;;;;;;;12.20;7.40;;;;;;;6.08;84.97;98096.61;130199;1270;108783;-77
2022/01/05 00:53:17;;;;;;;153.70;91.70;;;;;;;6.15;84.89;98094.27;130221;1268;108831;-76
2022/01/05 00:56:23;;;;;;;29.10;17.40;;;;;;;6.19;84.86;98099.58;130241;1268;107516;-77
2022/01/05 00:59:28;;;;;;;13.80;9.20;;;;;;;6.22;84.70;98097.42;130259;1268;107778;-76
2022/01/05 01:02:34;;;;;;;42.20;30.40;;;;;;;6.22;84.47;98099.20;130250;1268;108744;-77
2022/01/05 01:05:39;;;;;;;131.50;65.90;;;;;;;6.18;84.68;98104.11;130260;1268;108753;-77
2022/01/05 01:08:45;;;;;;;240.10;105.10;;;;;;;6.22;84.85;98101.82;130233;1268;108968;-77
2022/01/05 01:11:50;;;;;;;170.90;80.20;;;;;;;6.28;85.11;98104.49;130267;1268;108659;-77
2022/01/05 01:14:56;;;;;;;275.80;126.70;;;;;;;6.37;84.84;98112.41;130260;1268;108900;-77
2022/01/05 01:18:01;;;;;;;96.20;45.80;;;;;;;6.43;84.70;98119.17;130271;1268;108939;-76
2022/01/05 01:21:07;;;;;;;72.60;28.70;;;;;;;6.47;84.98;98122.64;130091;1271;108681;-76
2022/01/05 01:24:12;;;;;;;71.50;35.70;;;;;;;6.47;84.70;98127.70;130255;1268;108797;-76
2022/01/05 01:27:18;;;;;;;46.10;33.30;;;;;;;6.48;84.95;98132.08;130143;1268;108744;-77
2022/01/05 01:30:23;;;;;;;18.80;12.30;;;;;;;6.53;84.89;98137.09;129836;1271;108928;-76
2022/01/05 01:33:28;;;;;;;13.70;9.50;;;;;;;6.58;85.02;98147.15;130219;1268;108923;-75
2022/01/05 01:36:34;;;;;;;15.50;9.70;;;;;;;6.64;84.97;98154.52;130232;1268;108855;-75
2022/01/05 01:39:39;;;;;;;17.00;9.70;;;;;;;6.69;84.76;98151.52;129996;1269;108851;-75
2022/01/05 01:42:45;;;;;;;13.80;9.70;;;;;;;6.72;84.96;98150.86;130193;1268;108864;-75
2022/01/05 01:45:50;;;;;;;14.60;8.80;;;;;;;6.73;84.83;98148.23;130205;1268;108932;-75
2022/01/05 01:48:55;;;;;;;13.70;8.90;;;;;;;6.74;84.96;98150.63;130197;1268;108653;-76
2022/01/05 01:52:01;;;;;;;14.40;9.40;;;;;;;6.77;85.02;98152.95;130287;1268;108992;-78
2022/01/05 01:55:08;;;;;;;16.00;11.30;;;;;;;6.81;84.98;98148.66;130264;1268;109118;-77
2022/01/05 01:58:14;;;;;;;19.80;13.70;;;;;;;6.87;85.08;98145.85;130051;1271;108682;-78
2022/01/05 02:01:19;;;;;;;26.30;20.00;;;;;;;6.90;84.70;98147.68;130233;1268;108777;-78
2022/01/05 02:04:25;;;;;;;58.90;44.70;;;;;;;6.89;85.05;98144.04;130209;1268;108873;-76
2022/01/05 02:07:30;;;;;;;40.30;25.20;;;;;;;6.87;84.73;98146.42;130056;1269;107630;-76
2022/01/05 02:10:37;;;;;;;29.70;20.50;;;;;;;6.83;84.64;98150.16;130253;1268;108846;-75
2022/01/05 02:13:42;;;;;;;92.80;67.70;;;;;;;6.76;84.74;98147.92;130290;1268;108828;-76
2022/01/05 02:16:48;;;;;;;28.40;20.30;;;;;;;6.75;84.71;98149.21;130203;1268;108697;-76
2022/01/05 02:19:53;;;;;;;22.50;17.30;;;;;;;6.76;84.84;98155.31;130265;1268;108841;-77
2022/01/05 02:22:59;;;;;;;25.80;17.90;;;;;;;6.78;84.77;98161.29;130244;1268;108714;-76
2022/01/05 02:26:05;;;;;;;21.20;13.50;;;;;;;6.78;84.99;98161.77;130217;1268;108843;-77
2022/01/05 02:29:11;;;;;;;23.70;15.40;;;;;;;6.79;84.89;98173.17;130256;1268;106991;-78
2022/01/05 02:32:16;;;;;;;23.50;16.00;;;;;;;6.80;84.85;98179.18;130150;1271;108828;-79
2022/01/05 02:35:22;;;;;;;21.40;15.00;;;;;;;6.85;85.00;98178.12;130217;1268;108759;-76
2022/01/05 02:38:28;;;;;;;25.00;19.10;;;;;;;6.89;84.96;98182.61;130298;1268;108815;-75
2022/01/05 02:41:37;;;;;;;24.40;17.20;;;;;;;6.88;84.48;98183.95;130227;1268;108386;-76
2022/01/05 02:44:47;;;;;;;22.30;15.40;;;;;;;6.87;84.75;98191.98;130112;1269;108788;-77
2022/01/05 02:47:53;;;;;;;20.40;13.50;;;;;;;6.85;84.73;98194.58;130256;1268;109059;-75
2022/01/05 02:50:59;;;;;;;19.50;12.70;;;;;;;6.80;84.88;98194.84;130192;1268;110037;-76
2022/01/05 02:54:05;;;;;;;24.60;14.60;;;;;;;6.79;84.71;98196.52;130228;1267;108610;-73
2022/01/05 02:57:11;;;;;;;21.10;13.40;;;;;;;6.82;84.93;98193.98;130260;1267;108287;-75
2022/01/05 03:00:17;;;;;;;20.80;14.50;;;;;;;6.84;84.55;98191.31;130192;1268;108849;-74
2022/01/05 03:03:23;;;;;;;20.00;13.20;;;;;;;6.82;84.53;98194.30;130216;1268;108891;-75
2022/01/05 03:06:28;;;;;;;15.00;11.30;;;;;;;6.81;84.75;98193.73;130209;1268;108863;-72
2022/01/05 03:09:33;;;;;;;16.50;11.20;;;;;;;6.78;84.78;98187.88;130206;1268;108927;-73
2022/01/05 03:12:41;;;;;;;17.80;12.70;;;;;;;6.79;84.52;98188.46;130232;1268;109561;-73
2022/01/05 03:15:46;;;;;;;16.10;12.00;;;;;;;6.78;84.38;98188.94;130310;1268;108855;-73
2022/01/05 03:18:52;;;;;;;18.10;12.50;;;;;;;6.83;84.60;98183.52;130235;1271;108715;-73
2022/01/05 03:21:57;;;;;;;19.40;12.20;;;;;;;6.84;84.49;98171.79;130247;1268;108951;-77
2022/01/05 03:25:03;;;;;;;15.10;10.50;;;;;;;6.85;84.40;98166.11;130215;1268;109190;-77
2022/01/05 03:28:09;;;;;;;17.90;11.10;;;;;;;6.79;84.48;98166.04;130222;1268;107337;-73
2022/01/05 03:31:15;;;;;;;15.80;10.90;;;;;;;6.81;84.64;98170.76;130220;1268;108664;-74
2022/01/05 03:34:20;;;;;;;16.50;11.20;;;;;;;6.87;84.42;98174.02;130216;1268;108978;-76
2022/01/05 03:37:25;;;;;;;21.60;13.30;;;;;;;6.92;84.36;98176.88;130116;1270;108921;-75
2022/01/05 03:40:32;;;;;;;31.00;16.50;;;;;;;6.93;84.27;98180.19;130240;1268;108560;-74
2022/01/05 03:43:37;;;;;;;23.10;14.80;;;;;;;6.91;84.47;98186.24;130143;1270;108144;-73
2022/01/05 03:46:43;;;;;;;27.40;14.80;;;;;;;6.84;84.33;98183.76;130211;1268;108710;-76
2022/01/05 03:49:48;;;;;;;37.30;17.80;;;;;;;6.78;84.20;98175.23;130195;1268;108754;-74
2022/01/05 03:52:53;;;;;;;32.30;16.20;;;;;;;6.77;84.62;98172.28;130249;1268;107504;-80
2022/01/05 03:56:00;;;;;;;51.60;26.80;;;;;;;6.80;84.40;98171.23;130280;1268;109131;-78
2022/01/05 03:59:06;;;;;;;49.10;27.70;;;;;;;6.88;84.40;98176.53;131386;1267;108702;-78
2022/01/05 04:02:11;;;;;;;39.40;23.90;;;;;;;6.92;84.17;98166.68;130243;1268;108729;-78
2022/01/05 04:05:17;;;;;;;42.10;27.10;;;;;;;6.94;84.31;98168.35;130272;1268;108770;-78
2022/01/05 04:08:22;;;;;;;30.40;20.10;;;;;;;6.95;84.29;98176.09;130217;1268;109046;-79
2022/01/05 04:11:27;;;;;;;31.40;20.50;;;;;;;6.95;84.06;98177.30;129871;1270;108796;-78
2022/01/05 04:14:33;;;;;;;25.30;17.90;;;;;;;6.94;84.32;98181.47;130349;1268;108665;-78
2022/01/05 04:17:38;;;;;;;18.30;12.40;;;;;;;6.96;84.14;98191.66;130247;1268;108965;-78
2022/01/05 04:20:44;;;;;;;39.30;24.80;;;;;;;6.99;84.12;98199.92;130142;1270;107838;-78
2022/01/05 04:23:49;;;;;;;41.10;26.70;;;;;;;7.00;83.99;98204.73;130179;1270;109133;-80
2022/01/05 04:26:54;;;;;;;36.60;23.30;;;;;;;7.03;84.12;98211.14;130203;1268;108854;-78
2022/01/05 04:30:00;;;;;;;51.40;30.80;;;;;;;7.00;83.93;98200.45;130162;1270;109666;-79
2022/01/05 04:33:05;;;;;;;30.80;18.70;;;;;;;6.92;84.05;98196.40;130236;1268;107169;-78
2022/01/05 04:36:11;;;;;;;31.10;18.00;;;;;;;6.89;84.01;98193.59;130127;1269;108819;-76
2022/01/05 04:39:16;;;;;;;51.00;31.20;;;;;;;6.87;84.05;98188.41;130206;1268;108756;-76
2022/01/05 04:42:21;;;;;;;66.30;35.70;;;;;;;6.89;84.02;98184.87;130254;1267;108672;-77
2022/01/05 04:45:27;;;;;;;52.00;29.10;;;;;;;6.90;83.82;98185.79;130247;1268;108725;-79
2022/01/05 04:48:32;;;;;;;48.70;27.50;;;;;;;6.90;83.99;98177.70;130268;1268;109088;-78
2022/01/05 04:51:38;;;;;;;36.40;21.10;;;;;;;6.85;83.76;98184.14;130221;1271;108867;-77
2022/01/05 04:54:43;;;;;;;19.60;12.70;;;;;;;6.77;83.82;98182.63;130204;1266;108806;-78
2022/01/05 04:57:48;;;;;;;27.40;17.00;;;;;;;6.68;83.42;98175.45;130149;1270;108735;-79
2022/01/05 05:00:54;;;;;;;128.40;68.70;;;;;;;6.63;84.07;98166.31;130221;1268;109067;-78
2022/01/05 05:03:59;;;;;;;115.80;59.20;;;;;;;6.64;83.98;98160.18;130228;1267;108951;-78
2022/01/05 05:07:05;;;;;;;23.60;14.50;;;;;;;6.67;83.66;98159.38;130178;1268;108836;-79
2022/01/05 05:10:11;;;;;;;15.10;10.00;;;;;;;6.67;83.63;98171.52;130356;1268;109210;-78
2022/01/05 05:13:16;;;;;;;14.40;9.30;;;;;;;6.67;83.73;98186.77;130263;1268;108793;-78
2022/01/05 05:16:22;;;;;;;9.80;7.40;;;;;;;6.67;83.69;98208.58;130251;1268;108796;-78
2022/01/05 05:19:28;;;;;;;11.90;8.40;;;;;;;6.65;83.81;98221.52;130215;1268;108999;-78
2022/01/05 05:22:35;;;;;;;19.80;16.30;;;;;;;6.65;83.74;98220.66;130248;1268;106836;-79
2022/01/05 05:25:40;;;;;;;249.20;158.10;;;;;;;6.67;83.65;98222.69;130203;1268;107622;-79
2022/01/05 05:28:45;;;;;;;131.80;80.90;;;;;;;6.72;83.84;98238.86;130294;1268;108764;-78
2022/01/05 05:31:51;;;;;;;108.20;66.10;;;;;;;6.73;83.61;98240.98;130211;1268;106918;-78
2022/01/05 05:34:56;;;;;;;247.60;140.50;;;;;;;6.73;83.72;98246.36;130249;1268;108769;-78
2022/01/05 05:38:02;;;;;;;37.00;23.80;;;;;;;6.71;83.39;98244.27;130144;1270;108588;-78
2022/01/05 05:41:07;;;;;;;68.20;39.90;;;;;;;6.67;83.61;98244.30;130224;1268;108974;-77
2022/01/05 05:44:13;;;;;;;104.90;60.90;;;;;;;6.67;83.71;98253.47;130212;1268;107703;-78
2022/01/05 05:47:18;;;;;;;34.00;20.40;;;;;;;6.71;83.47;98250.79;130273;1270;108861;-78
2022/01/05 05:50:24;;;;;;;77.80;47.00;;;;;;;6.75;83.61;98244.55;130215;1268;108989;-78
2022/01/05 05:53:30;;;;;;;28.60;20.10;;;;;;;6.78;83.32;98241.87;130142;1270;108841;-78
2022/01/05 05:56:35;;;;;;;59.70;32.00;;;;;;;6.77;83.32;98238.98;130361;1268;108749;-78
2022/01/05 05:59:40;;;;;;;19.70;12.70;;;;;;;6.73;83.19;98248.64;130218;1268;108729;-79
2022/01/05 06:02:46;;;;;;;19.20;12.90;;;;;;;6.69;83.30;98248.00;130223;1270;108697;-78
2022/01/05 06:05:52;;;;;;;114.00;59.00;;;;;;;6.66;83.00;98244.77;130236;1268;108701;-78
2022/01/05 06:08:57;;;;;;;89.90;40.80;;;;;;;6.66;83.36;98252.23;130233;1268;108873;-78
2022/01/05 06:12:03;;;;;;;98.90;52.20;;;;;;;6.67;83.39;98254.86;130153;1270;108716;-78
2022/01/05 06:15:10;;;;;;;38.00;24.10;;;;;;;6.72;83.34;98262.18;130221;1268;108712;-77
2022/01/05 06:18:16;;;;;;;21.50;14.50;;;;;;;6.74;82.92;98263.17;130272;1268;108129;-78
2022/01/05 06:21:21;;;;;;;25.10;20.50;;;;;;;6.74;83.21;98268.27;130175;1268;108555;-78
2022/01/05 06:24:26;;;;;;;18.10;14.90;;;;;;;6.72;83.16;98263.86;130235;1268;109057;-79
2022/01/05 06:27:32;;;;;;;12.10;9.40;;;;;;;6.71;83.33;98273.39;130313;1268;108665;-78
2022/01/05 06:30:37;;;;;;;20.10;15.70;;;;;;;6.71;83.49;98269.52;130248;1268;109078;-78
2022/01/05 06:33:42;;;;;;;13.80;9.80;;;;;;;6.74;83.29;98282.98;130279;1268;107708;-77
2022/01/05 06:36:48;;;;;;;12.60;10.00;;;;;;;6.78;83.11;98290.64;130326;1268;108892;-77
2022/01/05 06:39:53;;;;;;;22.30;14.50;;;;;;;6.83;83.23;98280.36;130292;1267;108843;-78
2022/01/05 06:43:00;;;;;;;43.30;26.70;;;;;;;6.86;83.10;98291.56;130318;1267;109756;-82
2022/01/05 06:46:06;;;;;;;43.00;26.80;;;;;;;6.87;83.08;98290.95;130003;1268;191327;-77
2022/01/05 06:49:11;;;;;;;34.50;24.00;;;;;;;6.86;83.15;98310.32;130364;1268;107633;-79
2022/01/05 06:52:16;;;;;;;17.60;11.90;;;;;;;6.85;83.03;98312.38;130297;1268;108886;-78
2022/01/05 06:55:22;;;;;;;22.70;15.40;;;;;;;6.84;82.93;98303.85;130313;1268;108773;-77
2022/01/05 06:58:27;;;;;;;16.00;11.40;;;;;;;6.88;83.14;98283.27;130347;1268;109417;-78
2022/01/05 07:01:33;;;;;;;13.50;10.40;;;;;;;6.92;82.94;98292.21;130418;1268;108668;-78
2022/01/05 07:04:38;;;;;;;13.90;11.00;;;;;;;6.96;82.92;98300.41;130292;1267;108674;-78
2022/01/05 07:07:44;;;;;;;14.00;11.50;;;;;;;6.99;83.06;98294.58;130261;1268;108759;-77
2022/01/05 07:10:50;;;;;;;12.40;9.70;;;;;;;6.98;82.87;98285.44;130255;1268;108178;-79
2022/01/05 07:13:55;;;;;;;12.60;9.80;;;;;;;6.96;82.70;98289.23;130240;1268;108795;-77
2022/01/05 07:17:00;;;;;;;16.90;12.70;;;;;;;6.94;82.63;98286.96;130213;1268;108835;-77
2022/01/05 07:20:09;;;;;;;13.90;9.50;;;;;;;6.93;82.65;98290.69;130205;1268;108753;-77
2022/01/05 07:23:15;;;;;;;13.80;10.30;;;;;;;6.92;82.82;98289.30;130318;1268;108967;-77
2022/01/05 07:26:21;;;;;;;16.60;11.90;;;;;;;6.96;82.74;98290.86;130173;1268;108905;-78
2022/01/05 07:29:26;;;;;;;18.60;13.10;;;;;;;7.00;83.00;98276.34;130209;1268;108474;-78
2022/01/05 07:32:32;;;;;;;18.70;12.20;;;;;;;7.05;82.67;98274.95;130169;1270;108844;-79
2022/01/05 07:35:37;;;;;;;19.40;12.40;;;;;;;7.06;82.69;98271.25;130216;1268;108812;-78
2022/01/05 07:38:43;;;;;;;16.20;12.20;;;;;;;7.07;82.49;98270.05;130196;1268;108610;-80
2022/01/05 07:41:49;;;;;;;16.60;10.90;;;;;;;7.05;82.64;98277.77;130156;1270;108799;-80
2022/01/05 07:44:54;;;;;;;54.90;25.40;;;;;;;7.02;82.55;98275.26;130142;1270;108887;-77
2022/01/05 07:47:59;;;;;;;144.40;62.10;;;;;;;7.02;82.78;98275.95;130225;1268;107417;-78
2022/01/05 07:51:05;;;;;;;105.30;45.10;;;;;;;7.05;82.47;98272.95;130284;1268;108995;-79
2022/01/05 07:59:19;;;;;;;33.10;18.20;;;;;;;7.18;82.40;98279.92;130313;1268;109166;-77
2022/01/05 08:02:25;;;;;;;37.00;21.00;;;;;;;7.20;82.42;98278.08;130278;1268;108511;-77
2022/01/05 08:05:30;;;;;;;28.70;17.50;;;;;;;7.20;82.38;98275.27;130328;1268;108938;-77
2022/01/05 08:08:35;;;;;;;21.00;13.80;;;;;;;7.19;82.39;98279.63;130260;1268;108237;-76
2022/01/05 08:11:41;;;;;;;17.60;12.20;;;;;;;7.18;82.22;98276.94;130303;1268;107438;-78
2022/01/05 08:14:46;;;;;;;18.70;12.00;;;;;;;7.21;82.34;98278.22;130307;1268;108824;-78
2022/01/05 08:17:51;;;;;;;18.80;12.80;;;;;;;7.24;82.43;98280.30;130299;1268;107714;-78
2022/01/05 08:20:57;;;;;;;20.70;14.20;;;;;;;7.30;82.27;98279.62;130370;1267;108689;-77
2022/01/05 08:24:02;;;;;;;20.70;14.10;;;;;;;7.34;82.12;98277.25;130319;1266;108788;-80
2022/01/05 08:27:08;;;;;;;22.30;16.20;;;;;;;7.37;82.34;98271.73;130399;1268;109112;-79
2022/01/05 08:30:16;;;;;;;32.30;22.80;;;;;;;7.42;82.02;98280.50;130333;1267;108707;-79
2022/01/05 08:33:21;;;;;;;40.40;26.80;;;;;;;7.43;82.04;98275.34;130301;1267;108706;-78
2022/01/05 08:36:27;;;;;;;45.00;31.60;;;;;;;7.45;82.10;98275.04;130319;1268;107795;-78
2022/01/05 08:39:32;;;;;;;23.00;15.90;;;;;;;7.47;82.02;98274.86;130305;1268;108672;-77
2022/01/05 08:42:37;;;;;;;22.30;15.00;;;;;;;7.53;81.94;98270.93;130288;1268;108718;-79
2022/01/05 08:45:44;;;;;;;24.80;18.30;;;;;;;7.61;81.88;98265.86;130302;1268;109235;-79
2022/01/05 08:48:50;;;;;;;42.80;28.70;;;;;;;7.69;81.70;98270.55;130288;1268;108703;-78
2022/01/05 08:51:55;;;;;;;22.80;16.30;;;;;;;7.79;81.86;98271.17;130375;1268;108776;-78
2022/01/05 08:55:01;;;;;;;36.50;24.20;;;;;;;7.82;81.73;98271.27;130344;1268;108956;-78
2022/01/05 08:58:08;;;;;;;40.70;26.80;;;;;;;7.81;81.75;98271.25;130296;1268;109028;-79
2022/01/05 09:01:13;;;;;;;27.30;18.60;;;;;;;7.83;81.64;98271.16;130333;1267;107392;-79
2022/01/05 09:04:19;;;;;;;34.10;22.40;;;;;;;7.84;81.48;98267.36;130277;1268;108954;-77
2022/01/05 09:07:24;;;;;;;96.70;61.00;;;;;;;7.88;81.51;98263.68;130312;1268;108945;-79
2022/01/05 09:10:30;;;;;;;34.40;23.30;;;;;;;7.94;81.51;98264.59;130349;1267;108873;-81
2022/01/05 09:13:35;;;;;;;45.20;33.50;;;;;;;7.98;81.18;98267.13;130328;1267;108763;-77
2022/01/05 09:16:40;;;;;;;27.80;19.40;;;;;;;7.99;81.41;98270.00;130262;1267;108831;-77
2022/01/05 09:19:46;;;;;;;39.50;30.00;;;;;;;7.99;81.02;98268.25;130256;1267;108797;-79
2022/01/05 09:22:51;;;;;;;32.30;24.70;;;;;;;7.96;81.26;98265.83;130295;1268;109031;-78
2022/01/05 09:25:57;;;;;;;30.10;23.10;;;;;;;7.94;81.25;98266.02;130310;1268;108797;-78
2022/01/05 09:29:02;;;;;;;30.20;17.20;;;;;;;7.91;81.34;98270.79;130284;1267;108699;-80
2022/01/05 09:32:09;;;;;;;20.80;13.00;;;;;;;7.90;81.22;98273.64;130276;1267;108762;-77
2022/01/05 09:35:17;;;;;;;34.00;23.10;;;;;;;7.88;81.37;98271.52;130302;1268;108826;-78
2022/01/05 09:38:35;;;;;;;125.90;68.80;;;;;;;7.91;81.06;98266.17;130308;1268;108924;-78
2022/01/05 09:41:57;;;;;;;75.20;44.70;;;;;;;7.96;81.14;98269.80;130311;1268;108873;-80
2022/01/05 09:45:10;;;;;;;105.10;64.40;;;;;;;8.01;81.18;98271.36;130306;1268;108461;-79
2022/01/05 09:48:38;;;;;;;30.40;19.90;;;;;;;8.01;80.98;98269.74;130305;1268;108691;-78
2022/01/05 09:51:44;;;;;;;35.70;23.50;;;;;;;7.96;80.98;98268.20;130141;1268;107686;-77
2022/01/05 09:54:51;;;;;;;22.90;15.20;;;;;;;7.89;80.90;98269.33;130219;1268;108921;-78
2022/01/05 09:57:57;;;;;;;132.80;71.40;;;;;;;7.83;80.96;98272.75;130146;1268;108694;-80
2022/01/05 10:01:05;;;;;;;39.00;24.00;;;;;;;7.82;80.98;98267.05;130411;1267;108596;-78
2022/01/05 10:04:13;;;;;;;44.20;28.30;;;;;;;7.82;81.03;98266.85;130365;1267;108661;-78
2022/01/05 10:07:19;;;;;;;38.10;26.20;;;;;;;7.85;80.99;98263.13;130321;1268;107271;-80
2022/01/05 10:10:25;;;;;;;23.70;17.20;;;;;;;7.85;80.87;98262.08;130307;1267;108438;-80
2022/01/05 10:13:30;;;;;;;22.70;15.30;;;;;;;7.89;80.89;98261.00;130291;1268;108893;-79
2022/01/05 10:16:35;;;;;;;20.20;13.90;;;;;;;7.90;80.80;98263.02;130322;1267;108910;-78
2022/01/05 10:19:42;;;;;;;21.60;14.10;;;;;;;7.85;80.94;98261.17;130336;1268;109241;-79
2022/01/05 10:22:49;;;;;;;29.20;20.80;;;;;;;7.83;81.13;98254.92;130309;1268;109834;-80
2022/01/05 10:25:54;;;;;;;24.60;17.80;;;;;;;7.83;81.00;98252.27;130379;1268;108806;-77
2022/01/05 10:29:03;;;;;;;25.00;17.10;;;;;;;7.87;81.02;98252.48;130345;1268;108737;-79
2022/01/05 10:32:09;;;;;;;24.70;16.40;;;;;;;7.96;81.20;98248.10;130312;1267;109128;-80
2022/01/05 10:35:17;;;;;;;22.40;14.80;;;;;;;8.00;81.01;98253.02;130311;1268;107876;-79
2022/01/05 10:38:30;;;;;;;25.10;17.30;;;;;;;8.03;81.11;98249.21;130393;1267;109115;-78
2022/01/05 10:41:39;;;;;;;23.60;16.30;;;;;;;8.00;80.88;98243.33;130384;1268;108980;-78
2022/01/05 10:44:51;;;;;;;22.50;13.30;;;;;;;7.94;80.90;98246.59;130322;1267;109013;-80
2022/01/05 10:48:08;;;;;;;22.20;13.10;;;;;;;7.91;81.06;98249.25;130307;1268;109188;-79
2022/01/05 10:51:14;;;;;;;23.00;14.50;;;;;;;7.90;81.07;98251.86;130348;1267;107000;-77
2022/01/05 10:54:22;;;;;;;22.50;14.50;;;;;;;7.92;81.09;98245.20;130385;1267;108847;-79
2022/01/05 10:57:27;;;;;;;24.30;15.60;;;;;;;7.97;81.00;98238.89;130316;1267;107104;-79
2022/01/05 11:00:39;;;;;;;24.70;15.70;;;;;;;7.99;80.81;98236.14;130302;1268;108970;-79
2022/01/05 11:03:45;;;;;;;26.10;16.50;;;;;;;8.00;80.95;98238.67;130406;1267;108769;-78
2022/01/05 11:06:58;;;;;;;213.00;105.80;;;;;;;8.03;80.81;98238.34;130324;1267;108490;-78
2022/01/05 11:10:06;;;;;;;40.80;25.30;;;;;;;7.99;80.90;98242.02;130297;1267;109048;-80
2022/01/05 11:13:12;;;;;;;22.00;14.70;;;;;;;7.99;81.06;98242.70;130335;1268;109046;-78
2022/01/05 11:16:27;;;;;;;20.70;14.00;;;;;;;7.98;81.02;98247.15;130364;1267;108940;-78
2022/01/05 11:19:36;;;;;;;18.00;13.30;;;;;;;7.92;81.09;98248.30;130435;1268;109569;-77
2022/01/05 11:22:42;;;;;;;18.00;12.80;;;;;;;7.94;80.95;98245.26;130321;1268;108671;-80
2022/01/05 11:25:48;;;;;;;17.60;12.40;;;;;;;7.91;80.99;98242.19;130270;1268;108019;-78
2022/01/05 11:28:54;;;;;;;16.10;10.90;;;;;;;7.85;80.97;98228.52;130329;1268;108442;-75
2022/01/05 11:32:00;;;;;;;17.30;11.80;;;;;;;7.79;81.09;98230.95;130241;1268;108738;-80
2022/01/05 11:35:08;;;;;;;38.10;25.10;;;;;;;7.75;80.95;98233.76;130209;1268;108935;-79
2022/01/05 11:38:15;;;;;;;14.30;9.50;;;;;;;7.71;81.10;98230.68;130229;1268;108956;-79
2022/01/05 11:41:22;;;;;;;14.30;9.80;;;;;;;7.71;81.05;98235.82;130260;1268;108667;-79
2022/01/05 11:44:30;;;;;;;13.90;9.30;;;;;;;7.73;81.13;98231.19;130231;1268;108615;-79
2022/01/05 11:47:39;;;;;;;60.60;34.90;;;;;;;7.75;81.15;98234.25;130137;1268;108838;-79
2022/01/05 11:50:50;;;;;;;22.20;14.00;;;;;;;7.78;81.05;98228.40;130377;1268;108719;-79
2022/01/05 11:54:12;;;;;;;84.80;55.20;;;;;;;7.77;81.19;98232.83;130378;1268;108988;-78
2022/01/05 11:57:17;;;;;;;48.50;32.40;;;;;;;7.77;81.06;98234.55;130183;1268;108735;-78
2022/01/05 12:00:25;;;;;;;27.40;17.20;;;;;;;7.74;81.25;98230.38;130176;1268;108997;-79
2022/01/05 12:04:01;;;;;;;65.40;39.00;;;;;;;7.69;81.12;98228.44;129978;1268;108847;-76
2022/01/05 12:07:11;;;;;;;34.80;23.30;;;;;;;7.68;81.17;98221.13;130221;1268;108754;-78
2022/01/05 12:10:21;;;;;;;33.20;25.20;;;;;;;7.69;81.25;98215.38;130244;1269;108772;-80
2022/01/05 12:13:37;;;;;;;54.00;38.20;;;;;;;7.71;80.98;98207.75;130209;1268;108854;-80
2022/01/05 12:17:15;;;;;;;54.10;37.50;;;;;;;7.74;81.04;98202.16;130258;1268;108875;-79
2022/01/05 12:20:21;;;;;;;23.20;15.70;;;;;;;7.77;80.93;98196.40;130179;1268;107858;-80
2022/01/05 12:23:28;;;;;;;49.70;36.70;;;;;;;7.71;80.83;98199.75;130207;1270;109174;-78
2022/01/05 12:26:33;;;;;;;149.80;95.50;;;;;;;7.69;81.14;98200.88;130181;1268;107464;-79
2022/01/05 12:29:38;;;;;;;22.40;15.70;;;;;;;7.70;80.99;98205.14;130237;1268;108675;-79
2022/01/05 12:32:46;;;;;;;22.30;15.60;;;;;;;7.71;80.74;98210.31;130226;1268;108637;-79
2022/01/05 12:35:55;;;;;;;29.30;23.80;;;;;;;7.68;80.66;98220.23;130229;1268;108934;-80
2022/01/05 12:39:02;;;;;;;14.00;10.10;;;;;;;7.64;80.61;98211.91;130266;1268;107466;-80
2022/01/05 12:42:24;;;;;;;254.40;83.30;;;;;;;7.60;80.72;98211.13;130214;1270;108730;-80
2022/01/05 12:45:53;;;;;;;35.80;19.40;;;;;;;7.54;80.39;98219.66;130322;1268;108711;-77
2022/01/05 12:49:00;;;;;;;79.90;41.30;;;;;;;7.43;80.66;98227.52;130167;1270;108685;-78
2022/01/05 12:52:09;;;;;;;14.10;9.20;;;;;;;7.33;80.50;98238.61;130204;1268;108932;-79
2022/01/05 12:55:17;;;;;;;13.90;8.60;;;;;;;7.12;79.99;98251.40;130206;1270;108943;-79
2022/01/05 12:58:23;;;;;;;11.70;7.70;;;;;;;6.75;79.77;98268.86;130360;1268;108753;-80
2022/01/05 13:01:30;;;;;;;9.70;6.90;;;;;;;6.34;80.04;98274.06;130268;1268;108999;-79
2022/01/05 13:04:37;;;;;;;17.90;10.60;;;;;;;6.01;81.02;98275.32;130282;1268;108741;-80
2022/01/05 13:07:44;;;;;;;16.60;9.20;;;;;;;5.84;81.16;98278.95;130208;1270;108872;-79
2022/01/05 13:10:51;;;;;;;8.90;6.00;;;;;;;5.78;81.15;98275.56;130248;1268;108696;-79
2022/01/05 13:14:14;;;;;;;10.20;7.30;;;;;;;5.63;81.20;98288.64;130309;1268;108618;-77
2022/01/05 13:17:19;;;;;;;;;;;;;;;5.47;81.31;98302.60;130293;1268;109715;-77
2022/01/05 13:20:25;;;;;;;10.40;6.90;;;;;;;5.35;81.22;98293.56;130217;1268;108991;-79
2022/01/05 13:23:30;;;;;;;9.20;5.90;;;;;;;5.24;81.42;98300.39;130255;1268;108815;-79
2022/01/05 13:26:36;;;;;;;7.20;4.80;;;;;;;5.09;81.54;98301.78;130254;1268;108723;-79
2022/01/05 13:29:41;;;;;;;7.70;5.30;;;;;;;5.01;81.69;98304.46;130221;1268;109322;-78
2022/01/05 13:32:49;;;;;;;19.50;9.90;;;;;;;4.95;81.84;98315.10;130233;1268;107721;-78
2022/01/05 13:35:54;;;;;;;16.70;9.00;;;;;;;4.84;81.96;98320.36;130244;1268;108699;-78
2022/01/05 13:38:59;;;;;;;17.20;9.80;;;;;;;4.87;82.08;98327.50;130204;1270;107768;-79
2022/01/05 13:42:06;;;;;;;15.00;7.90;;;;;;;5.00;81.75;98327.23;130322;1268;106664;-79
2022/01/05 13:45:15;;;;;;;7.20;4.30;;;;;;;4.96;81.25;98333.51;130185;1268;108883;-80
2022/01/05 13:48:26;;;;;;;32.40;13.90;;;;;;;4.88;81.35;98328.91;130236;1268;108678;-79
2022/01/05 13:51:32;;;;;;;6.80;3.40;;;;;;;4.89;81.15;98324.26;130378;1268;108459;-77
2022/01/05 13:54:39;;;;;;;6.50;3.30;;;;;;;4.90;81.20;98327.30;130419;1268;108748;-78
2022/01/05 13:57:45;;;;;;;3.80;2.50;;;;;;;4.96;80.89;98326.43;130353;1268;108858;-78
2022/01/05 14:00:52;;;;;;;4.40;2.40;;;;;;;4.91;80.42;98326.10;130448;1268;108723;-78
2022/01/05 14:04:07;;;;;;;6.50;3.70;;;;;;;4.85;80.46;98336.11;130408;1268;108779;-79
2022/01/05 14:07:20;;;;;;;3.30;2.20;;;;;;;4.72;80.64;98348.73;130385;1268;108923;-79
2022/01/05 14:10:30;;;;;;;6.30;3.50;;;;;;;4.61;80.51;98345.88;130341;1267;108750;-78
2022/01/05 14:13:43;;;;;;;4.90;3.40;;;;;;;4.50;80.75;98360.05;130277;1268;108704;-80
2022/01/05 14:16:49;;;;;;;5.30;3.30;;;;;;;4.50;80.95;98372.92;130358;1268;108832;-78